Belleville, Wisconsin
Current Conditions -  °F | °C
As of 9:15 PM on Saturday 25 Oct 2014 (Local Time) from KEFT Reporting Station
Clear Clear  
Wind Chill: 52°   Ceiling: Unl
Heat Index: 52°   Visibility: 10mi
Dew Point: 30°   Wind: 10mph
Humidity: 44%   Direction: 300°WNW
Pressure: 30"   Gusts: NA
Location:  42.86°N, 89.54°W
Report Text: KEFT 260215Z AUTO 30009KT 10SM CLR 11/M01 A3000 RMK AO2
Loading
Personal Weather Stations






























Interactive Weather Map
Tropical Storm Tracking
New forecast layout! Learn more

10-Day Weather Forecast

Advertisements
Track Severe Weather on mobile